Main page
METAR-TAF:

METAR-TAF

Airports :

Salt Lake City International Airport

Salt Lake City, Utah, United States

latitude: 40-46-41N, longitude: 111-58-10W, elevation: 1288 m

Current weather observation

The report was made 22 minutes ago, at 12:54 UTC
Wind 9 kt from the East/Southeast
Temperature 23°C
Humidity 16%
Pressure 1017 hPa
Visibility: 16.1 km
Clear sky

METAR: KSLC 141254Z 12009KT 10SM CLR 23/M04 A3004 RMK AO2 SLP104 T02331044

Time: 07:16 (13:16 UTC)

Forecast

The report was made 1 hour and 56 minutes ago, at 11:20 UTC
Forecast valid from 14 at 12 UTC to 15 at 18 UTC
Wind 14 kt from the South/Southeast
Visibility: 10 km
Clear sky
From 14 at 1700 UTC
Wind 15 kt from the South with gusts up to 25 kt
Visibility: 10 km
Clear sky
From 15 at 0300 UTC
Wind 11 kt from the South/Southeast
Visibility: 10 km
Clear sky

TAF: KSLC 141120Z 1412/1518 15014KT P6SM SKC FM141700 18015G25KT P6SM SKC FM150300 15011KT P6SM SKC

Weather observations and forecasts of more than 4000 airports (METAR and TAF reports).

The available stations are represented by yellow and red dots on the map.

Hover mouse over dot to see the name of the station.

Then click to see weather observations and forecasts.

To change the map : click on the green buttons with a black cross to zoom in, on the green button with a dash to zoom out, or on the green arrows for adjacent maps.


METAR-TAF: